Allenton, Michigan
Current Conditions -  °F | °C
As of 4:14 AM on Monday 20 Oct 2014 (Local Time) from KD95 Reporting Station
Light Rain Light Rain  
Wind Chill:   Ceiling: 4500
Heat Index:   Visibility: 10mi
Dew Point:   Wind: 6mph
Humidity: 88%   Direction: 190°S
Pressure: 29.87"   Gusts: NA
Location:  42.92°N, 82.95°W
Report Text: KD95 200814Z AUTO 19005KT 10SM -RA SCT039 BKN045 OVC060 08/06 A2987 RMK AO2 P0002 T00750056
Loading
Personal Weather Stations






























Interactive Weather Map
Tropical Storm Tracking
New forecast layout! Learn more

10-Day Weather Forecast

Advertisements
Track Severe Weather on mobile